KMQY

Smyrna Airport

Smyrna, Tennessee, USA
METAR KMQY 241956Z 18013G20KT 10SM SCT036 SCT080 24/17 A2993 RMK AO2 SLP038 T02390167
Observed Flight Rules
Feb-24 @ 19:56 UTC (20 minutes ago) Visual Flight Rules
Wind Visibility Clouds
180° at 13 knots
 Gusting to 20 knots
10 miles
  • Scattered at 3,600' AGL
  • Scattered at 8,000' AGL
Temperatures Readings
Current 24°C / 75°F
Dewpoint 17°C / 63°F
Humidity 65%
Altimeter 29.93" Hg
Pressure 1003.8 hPa
Elevation 166
METAR KMQY 241956Z 18013G20KT 10SM SCT036 SCT080 24/17 A2993 RMK AO2 SLP038 T02390167
Observed Flight Rules
Feb-24 @ 19:56 UTC
(20 minutes ago)
VFR
Wind Visibility
180° at 13 knots
 Gusting to 20 knots
10 miles
Clouds
  • Scattered at 3,600' AGL
  • Scattered at 8,000' AGL
Temperature Dewpoint
24°C / 75°F 17°C / 63°F
Humidity Altimeter Pressure
65% 29.93" Hg 1003.8 hPa